Oasis of the Seas — C6XS7 — position and weather

sailwx.info

Track history (hours):
 
Tides and Currents Weather Stations Pressure Air Temp Water Temp Dewpoint Dewpoint Depression Visibility Wind Speed Wind Dir Waves Ship Positions

Oasis of the Seas

Last reported at 2016-May-04 00:29 UTC. Time now 2016-May-04 04:00 UTC.
Position N 18°11' W 064°50'.

Length 360 m; draft 9.1 m.

Type: Passenger vessel. MMSI: 311020600.

Date/timePositionNaut miles runAvg speedWind from/ knotsBaromVisibWave heightAir tempDewpointWater temp
2016-May-04 00:29N 18°11' W 064°50'  
2016-Apr-30 22:19N 26°08' W 079°49'1013.1
2016-Apr-30 21:33N 26°07' W 080°00'7 6.5
2016-Apr-30 20:32N 26°05' W 080°07'0 0.0
2016-Apr-30 19:32N 26°05' W 080°07'0 0.0
2016-Apr-30 18:32N 26°05' W 080°07'0 0.0
2016-Apr-30 17:32N 26°05' W 080°07'0 0.0
2016-Apr-30 16:32N 26°05' W 080°07'0 0.0
2016-Apr-30 15:23N 26°05' W 080°07'0 0.0
2016-Apr-30 14:23N 26°05' W 080°07'0 0.0
2016-Apr-30 13:26N 26°05' W 080°07'0 0.0
2016-Apr-30 12:23N 26°05' W 080°07'0 0.0
2016-Apr-30 11:26N 26°05' W 080°07'0 0.0
2016-Apr-30 10:26N 26°05' W 080°07'1 1.6
2016-Apr-30 09:33N 26°06' W 080°06'10 9.6
2016-Apr-30 08:33N 25°60' W 079°57'1818.0
2016-Apr-30 07:33N 25°42' W 079°55'49618.2
2016-Apr-29 04:22N 20°34' W 086°58'5 6.5
2016-Apr-29 03:34N 20°29' W 086°59'1110.8
2016-Apr-29 02:30N 20°40' W 086°54'6 2.1
2016-Apr-28 23:32N 20°34' W 086°58'5 5.2
2016-Apr-28 22:30N 20°29' W 086°59'0 0.0
2016-Apr-28 21:33N 20°29' W 086°59'0 0.0
2016-Apr-28 20:30N 20°29' W 086°59'0 0.0
2016-Apr-28 19:33N 20°29' W 086°59'0 0.0
2016-Apr-28 18:30N 20°29' W 086°59'0 0.0
2016-Apr-28 17:33N 20°29' W 086°59'0 0.0
2016-Apr-28 16:33N 20°29' W 086°59'0 0.0
2016-Apr-28 15:33N 20°29' W 086°59'0 0.0
2016-Apr-28 14:33N 20°29' W 086°59'0 0.0
2016-Apr-28 13:33N 20°29' W 086°59'0 0.0
2016-Apr-28 12:33N 20°29' W 086°59'0 0.3
2016-Apr-28 11:33N 20°29' W 086°59'1010.4
2016-Apr-28 10:33N 20°39' W 086°54'  
Track history (hours):
 
Tides and Currents Weather Stations Pressure Air Temp Water Temp Dewpoint Dewpoint Depression Visibility Wind Speed Wind Dir Waves Ship Positions

Oasis of the Seas

Last reported at 2016-May-04 00:29 UTC. Time now 2016-May-04 04:00 UTC.
Position N 18°11' W 064°50'.

Length 360 m; draft 9.1 m.

Type: Passenger vessel. MMSI: 311020600.

Date/timePositionNaut miles runAvg speedWind from/ knotsBaromVisibWave heightAir tempDewpointWater temp
2016-May-04 00:29N 18°11' W 064°50'  
2016-Apr-30 22:19N 26°08' W 079°49'1013.1
2016-Apr-30 21:33N 26°07' W 080°00'7 6.5
2016-Apr-30 20:32N 26°05' W 080°07'0 0.0
2016-Apr-30 19:32N 26°05' W 080°07'0 0.0
2016-Apr-30 18:32N 26°05' W 080°07'0 0.0
2016-Apr-30 17:32N 26°05' W 080°07'0 0.0
2016-Apr-30 16:32N 26°05' W 080°07'0 0.0
2016-Apr-30 15:23N 26°05' W 080°07'0 0.0
2016-Apr-30 14:23N 26°05' W 080°07'0 0.0
2016-Apr-30 13:26N 26°05' W 080°07'0 0.0
2016-Apr-30 12:23N 26°05' W 080°07'0 0.0
2016-Apr-30 11:26N 26°05' W 080°07'0 0.0
2016-Apr-30 10:26N 26°05' W 080°07'1 1.6
2016-Apr-30 09:33N 26°06' W 080°06'10 9.6
2016-Apr-30 08:33N 25°60' W 079°57'1818.0
2016-Apr-30 07:33N 25°42' W 079°55'49618.2
2016-Apr-29 04:22N 20°34' W 086°58'5 6.5
2016-Apr-29 03:34N 20°29' W 086°59'1110.8
2016-Apr-29 02:30N 20°40' W 086°54'6 2.1
2016-Apr-28 23:32N 20°34' W 086°58'5 5.2
2016-Apr-28 22:30N 20°29' W 086°59'0 0.0
2016-Apr-28 21:33N 20°29' W 086°59'0 0.0
2016-Apr-28 20:30N 20°29' W 086°59'0 0.0
2016-Apr-28 19:33N 20°29' W 086°59'0 0.0
2016-Apr-28 18:30N 20°29' W 086°59'0 0.0
2016-Apr-28 17:33N 20°29' W 086°59'0 0.0
2016-Apr-28 16:33N 20°29' W 086°59'0 0.0
2016-Apr-28 15:33N 20°29' W 086°59'0 0.0
2016-Apr-28 14:33N 20°29' W 086°59'0 0.0
2016-Apr-28 13:33N 20°29' W 086°59'0 0.0
2016-Apr-28 12:33N 20°29' W 086°59'0 0.3
2016-Apr-28 11:33N 20°29' W 086°59'1010.4
2016-Apr-28 10:33N 20°39' W 086°54'  

Dump ship's entire track history